Time;durP1;ratioP1;P1;durP2;ratioP2;P2;SDS_P1;SDS_P2;PMS_P1;PMS_P2;Temp;Humidity;BMP_temperature;BMP_pressure;BME280_temperature;BME280_humidity;BME280_pressure;Samples;Min_cycle;Max_cycle;Signal;HPM_P1;HPM_P2
2023/10/27 00:01:03;;;;;;;48.10;23.87;;;9.80;99.90;;;;;;5178766;28;20435;-50
2023/10/27 00:03:34;;;;;;;49.57;23.80;;;9.70;99.90;;;;;;5184445;28;22394;-51
2023/10/27 00:06:04;;;;;;;44.67;21.93;;;9.70;99.90;;;;;;5174471;28;20962;-50
2023/10/27 00:08:35;;;;;;;49.17;21.73;;;9.70;99.90;;;;;;5181236;28;20328;-49
2023/10/27 00:11:08;;;;;;;51.67;24.47;;;9.70;99.90;;;;;;5170938;28;20199;-49
2023/10/27 00:13:42;;;;;;;46.37;21.33;;;9.70;99.90;;;;;;5188170;28;20203;-49
2023/10/27 00:16:16;;;;;;;50.00;24.00;;;9.70;99.90;;;;;;5181709;28;20443;-50
2023/10/27 00:18:47;;;;;;;48.00;22.47;;;9.70;99.90;;;;;;5184751;28;20466;-50
2023/10/27 00:21:18;;;;;;;54.90;22.33;;;9.70;99.90;;;;;;5187690;28;20422;-50
2023/10/27 00:23:49;;;;;;;57.40;24.10;;;9.60;99.90;;;;;;5183591;28;20216;-49
2023/10/27 00:26:20;;;;;;;59.93;23.80;;;9.60;99.90;;;;;;5183245;28;20490;-49
2023/10/27 00:28:50;;;;;;;52.03;24.63;;;9.70;99.90;;;;;;5181756;28;20215;-51
2023/10/27 00:31:21;;;;;;;62.03;23.53;;;9.60;99.90;;;;;;5178422;28;20235;-50
2023/10/27 00:33:52;;;;;;;54.17;22.10;;;9.70;99.90;;;;;;5180455;28;20243;-50
2023/10/27 00:36:23;;;;;;;50.53;22.67;;;9.60;99.90;;;;;;5179150;28;20630;-51
2023/10/27 00:38:54;;;;;;;57.27;22.67;;;9.60;99.90;;;;;;5180388;28;20287;-50
2023/10/27 00:41:25;;;;;;;49.57;23.10;;;9.60;99.90;;;;;;5186687;28;20539;-49
2023/10/27 00:43:56;;;;;;;47.60;21.30;;;9.60;99.90;;;;;;5178747;28;20210;-51
2023/10/27 00:46:28;;;;;;;44.57;21.33;;;9.60;99.90;;;;;;5182275;28;20219;-49
2023/10/27 00:49:00;;;;;;;46.00;22.30;;;9.60;99.90;;;;;;5184075;28;20216;-49
2023/10/27 00:51:31;;;;;;;49.27;22.77;;;9.60;99.90;;;;;;5182260;28;20443;-49
2023/10/27 00:54:02;;;;;;;63.87;23.57;;;9.60;99.90;;;;;;5185357;28;20481;-49
2023/10/27 00:56:36;;;;;;;63.77;23.07;;;9.60;99.90;;;;;;5186230;28;20428;-48
2023/10/27 00:59:13;;;;;;;55.27;23.37;;;9.60;99.90;;;;;;5185831;28;20451;-48
2023/10/27 01:01:44;;;;;;;70.33;24.80;;;9.60;99.90;;;;;;5181692;28;21244;-49
2023/10/27 01:04:24;;;;;;;73.67;24.90;;;9.60;99.90;;;;;;5182557;28;20646;-49
2023/10/27 01:06:56;;;;;;;80.47;28.23;;;9.50;99.90;;;;;;5179732;28;20497;-48
2023/10/27 01:09:27;;;;;;;71.63;26.00;;;9.50;99.90;;;;;;5184850;28;20466;-51
2023/10/27 01:11:58;;;;;;;75.57;27.33;;;9.50;99.90;;;;;;5182890;28;20517;-49
2023/10/27 01:14:34;;;;;;;74.77;27.47;;;9.50;99.90;;;;;;5182021;28;20605;-48
2023/10/27 01:17:05;;;;;;;86.77;27.50;;;9.50;99.90;;;;;;5184153;28;20476;-48
2023/10/27 01:19:36;;;;;;;69.97;25.73;;;9.50;99.90;;;;;;5172045;28;20462;-50
2023/10/27 01:22:07;;;;;;;94.90;28.57;;;9.50;99.90;;;;;;5182675;28;20436;-49
2023/10/27 01:24:43;;;;;;;81.43;28.87;;;9.50;99.90;;;;;;5184675;28;20550;-48
2023/10/27 01:27:14;;;;;;;74.60;25.80;;;9.50;99.90;;;;;;5183017;28;20519;-49
2023/10/27 01:29:45;;;;;;;83.80;28.13;;;9.50;99.90;;;;;;5180514;28;20454;-49
2023/10/27 01:32:19;;;;;;;86.07;28.20;;;9.50;99.90;;;;;;5194276;28;20189;-50
2023/10/27 01:34:50;;;;;;;84.00;29.17;;;9.50;99.90;;;;;;5194002;28;20203;-48
2023/10/27 01:37:21;;;;;;;77.40;28.03;;;9.50;99.90;;;;;;5180926;28;20427;-49
2023/10/27 01:39:52;;;;;;;82.03;28.00;;;9.50;99.90;;;;;;5182118;28;20271;-50
2023/10/27 01:42:23;;;;;;;94.37;28.37;;;9.50;99.90;;;;;;5181843;28;20181;-50
2023/10/27 01:44:54;;;;;;;89.37;27.63;;;9.50;99.90;;;;;;5183301;28;20240;-51
2023/10/27 01:47:25;;;;;;;99.37;29.50;;;9.50;99.90;;;;;;5182058;28;20529;-48
2023/10/27 01:49:58;;;;;;;95.77;28.90;;;9.50;99.90;;;;;;5185432;28;20211;-50
2023/10/27 01:52:29;;;;;;;101.87;30.43;;;9.40;99.90;;;;;;5178162;28;20946;-50
2023/10/27 01:55:00;;;;;;;104.67;30.30;;;9.40;99.90;;;;;;5181054;28;20462;-49
2023/10/27 01:57:31;;;;;;;103.33;30.00;;;9.40;99.90;;;;;;5174085;28;20281;-49
2023/10/27 02:00:07;;;;;;;105.30;33.33;;;9.40;99.90;;;;;;5181555;28;20450;-52
2023/10/27 02:02:38;;;;;;;111.43;31.70;;;9.40;99.90;;;;;;5178792;28;20788;-50
2023/10/27 02:05:12;;;;;;;96.97;30.50;;;9.40;99.90;;;;;;5181317;28;20895;-49
2023/10/27 02:07:43;;;;;;;88.10;29.33;;;9.40;99.90;;;;;;5181903;28;20444;-49
2023/10/27 02:10:16;;;;;;;93.63;32.07;;;9.40;99.90;;;;;;5182976;28;20435;-50
2023/10/27 02:12:59;;;;;;;101.87;30.37;;;9.40;99.90;;;;;;5179955;28;20184;-50
2023/10/27 02:15:29;;;;;;;98.73;31.80;;;9.40;99.90;;;;;;5177598;28;20534;-50
2023/10/27 02:18:09;;;;;;;87.47;30.53;;;9.40;99.90;;;;;;5181410;28;20473;-49
2023/10/27 02:20:40;;;;;;;78.60;28.27;;;9.40;99.90;;;;;;5178932;28;20184;-51
2023/10/27 02:23:11;;;;;;;82.33;26.20;;;9.40;99.90;;;;;;5179598;28;20976;-50
2023/10/27 02:25:42;;;;;;;85.77;28.97;;;9.40;99.90;;;;;;5181061;28;20189;-51
2023/10/27 02:28:13;;;;;;;70.57;27.77;;;9.50;99.90;;;;;;5182553;28;20196;-48
2023/10/27 02:30:44;;;;;;;81.60;25.90;;;9.50;99.90;;;;;;5179382;28;20944;-49
2023/10/27 02:33:15;;;;;;;82.63;27.63;;;9.40;99.90;;;;;;5184142;28;20184;-48
2023/10/27 02:35:46;;;;;;;84.83;26.60;;;9.50;99.90;;;;;;5176751;28;20561;-51
2023/10/27 02:38:17;;;;;;;62.20;23.67;;;9.50;99.90;;;;;;5183394;28;20537;-49
2023/10/27 02:40:47;;;;;;;61.83;23.70;;;9.50;99.90;;;;;;5198408;28;20522;-50
2023/10/27 02:43:18;;;;;;;60.07;24.50;;;9.50;99.90;;;;;;5182956;28;20285;-50
2023/10/27 02:46:00;;;;;;;58.30;22.77;;;9.50;99.90;;;;;;5182190;28;20184;-50
2023/10/27 02:48:32;;;;;;;62.27;23.70;;;9.50;99.90;;;;;;5181884;28;20230;-48
2023/10/27 02:51:08;;;;;;;69.00;23.40;;;9.50;99.90;;;;;;5177896;28;20513;-50
2023/10/27 02:53:42;;;;;;;52.40;23.80;;;9.50;99.90;;;;;;5176600;28;20857;-48
2023/10/27 02:56:13;;;;;;;52.73;22.77;;;9.50;99.90;;;;;;5167570;28;20427;-49
2023/10/27 02:58:43;;;;;;;60.27;24.17;;;9.50;99.90;;;;;;5184061;28;20835;-50
2023/10/27 03:01:17;;;;;;;48.23;22.53;;;9.50;99.90;;;;;;5180399;28;20439;-50
2023/10/27 03:03:48;;;;;;;43.70;21.27;;;9.50;99.90;;;;;;5179537;28;20195;-49
2023/10/27 03:06:19;;;;;;;60.17;23.23;;;9.50;99.90;;;;;;5176182;28;20428;-49
2023/10/27 03:08:50;;;;;;;60.67;23.20;;;9.50;99.90;;;;;;5181325;28;20207;-49
2023/10/27 03:11:20;;;;;;;49.30;20.63;;;9.50;99.90;;;;;;5179738;28;20279;-49
2023/10/27 03:13:51;;;;;;;50.43;22.23;;;9.50;99.90;;;;;;5179614;28;20555;-50
2023/10/27 03:16:22;;;;;;;46.43;21.37;;;9.50;99.90;;;;;;5193614;28;20191;-49
2023/10/27 03:18:55;;;;;;;51.77;22.23;;;9.50;99.90;;;;;;5177988;28;20285;-49
2023/10/27 03:21:26;;;;;;;57.37;22.40;;;9.50;99.90;;;;;;5196431;28;20188;-50
2023/10/27 03:23:57;;;;;;;50.47;22.20;;;9.50;99.90;;;;;;5174717;28;20942;-51
2023/10/27 03:26:28;;;;;;;43.40;21.03;;;9.50;99.90;;;;;;5183057;28;20193;-53
2023/10/27 03:28:58;;;;;;;49.03;22.70;;;9.60;99.90;;;;;;5183317;28;20299;-49
2023/10/27 03:31:29;;;;;;;52.37;23.17;;;9.50;99.90;;;;;;5177884;28;20540;-49
2023/10/27 03:34:01;;;;;;;45.30;20.87;;;9.50;99.90;;;;;;5178941;28;20196;-50
2023/10/27 03:36:32;;;;;;;38.03;19.40;;;9.50;99.90;;;;;;5182915;28;20823;-49
2023/10/27 03:39:03;;;;;;;39.90;20.60;;;9.50;99.90;;;;;;5178669;28;20516;-49
2023/10/27 03:41:34;;;;;;;54.27;22.50;;;9.60;99.90;;;;;;5185870;28;20188;-49
2023/10/27 03:44:04;;;;;;;41.33;21.60;;;9.60;99.90;;;;;;5184411;28;20578;-50
2023/10/27 03:46:35;;;;;;;43.30;21.20;;;9.60;99.90;;;;;;5186674;28;20474;-50
2023/10/27 03:49:09;;;;;;;46.87;21.17;;;9.60;99.90;;;;;;5184824;28;20481;-49
2023/10/27 03:51:43;;;;;;;48.43;21.37;;;9.60;99.90;;;;;;5182763;28;20192;-49
2023/10/27 03:54:14;;;;;;;44.30;22.40;;;9.60;99.90;;;;;;5184338;28;20475;-49
2023/10/27 03:56:45;;;;;;;52.57;23.90;;;9.60;99.90;;;;;;5181974;28;20424;-49
2023/10/27 03:59:18;;;;;;;45.67;23.37;;;9.60;99.90;;;;;;5182416;28;20214;-50
2023/10/27 04:01:49;;;;;;;47.67;23.20;;;9.60;99.90;;;;;;5180127;28;20431;-49
2023/10/27 04:04:20;;;;;;;40.90;22.80;;;9.60;99.90;;;;;;5201783;28;20439;-50
2023/10/27 04:06:51;;;;;;;48.27;24.40;;;9.60;99.90;;;;;;5183299;28;20432;-50
2023/10/27 04:09:22;;;;;;;44.23;22.50;;;9.60;99.90;;;;;;5177278;28;20517;-50
2023/10/27 04:11:55;;;;;;;46.30;22.83;;;9.50;99.90;;;;;;5180353;28;20212;-50
2023/10/27 04:14:26;;;;;;;43.33;22.37;;;9.60;99.90;;;;;;5186502;28;20235;-49
2023/10/27 04:17:00;;;;;;;46.53;23.40;;;9.60;99.90;;;;;;5185668;28;20489;-49
2023/10/27 04:19:30;;;;;;;40.63;22.90;;;9.60;99.90;;;;;;5186038;28;20205;-47
2023/10/27 04:22:01;;;;;;;45.17;24.03;;;9.60;99.90;;;;;;5182732;28;20442;-49
2023/10/27 04:24:32;;;;;;;47.33;24.07;;;9.50;99.90;;;;;;5185954;28;20554;-49
2023/10/27 04:27:03;;;;;;;49.53;24.47;;;9.50;99.90;;;;;;5183601;28;20192;-48
2023/10/27 04:29:34;;;;;;;57.17;22.87;;;9.50;99.90;;;;;;5185323;28;20255;-49
2023/10/27 04:32:05;;;;;;;41.50;22.90;;;9.50;99.90;;;;;;5181360;28;20470;-51
2023/10/27 04:34:36;;;;;;;48.63;22.87;;;9.50;99.90;;;;;;5185522;28;20220;-48
2023/10/27 04:37:07;;;;;;;51.37;25.37;;;9.50;99.90;;;;;;5183985;28;20442;-49
2023/10/27 04:39:38;;;;;;;47.43;23.63;;;9.50;99.90;;;;;;5179060;28;20669;-49
2023/10/27 04:42:08;;;;;;;59.13;25.00;;;9.50;99.90;;;;;;5182968;28;20211;-49
2023/10/27 04:44:39;;;;;;;56.97;24.73;;;9.50;99.90;;;;;;5179988;28;20231;-48
2023/10/27 04:47:10;;;;;;;49.07;23.70;;;9.50;99.90;;;;;;5182795;28;20654;-48
2023/10/27 04:49:40;;;;;;;49.73;24.50;;;9.40;99.90;;;;;;5182819;28;22167;-49
2023/10/27 04:52:11;;;;;;;50.80;23.97;;;9.40;99.90;;;;;;5198268;28;20218;-50
2023/10/27 04:54:42;;;;;;;52.00;24.77;;;9.40;99.90;;;;;;5181008;28;20764;-49
2023/10/27 04:57:14;;;;;;;49.57;23.23;;;9.40;99.90;;;;;;5179406;28;20447;-49
2023/10/27 04:59:47;;;;;;;52.50;23.03;;;9.40;99.90;;;;;;5181390;28;20448;-49
2023/10/27 05:02:18;;;;;;;49.83;22.63;;;9.40;99.90;;;;;;5187651;28;20200;-49
2023/10/27 05:04:48;;;;;;;51.43;24.77;;;9.40;99.90;;;;;;5184912;28;20439;-50
2023/10/27 05:07:19;;;;;;;49.20;21.67;;;9.40;99.90;;;;;;5185783;28;20237;-49
2023/10/27 05:09:51;;;;;;;46.93;22.07;;;9.40;99.90;;;;;;5186260;28;20220;-49
2023/10/27 05:12:25;;;;;;;45.23;22.17;;;9.40;99.90;;;;;;5184233;28;20243;-48
2023/10/27 05:14:56;;;;;;;45.07;23.37;;;9.40;99.90;;;;;;5184650;28;20450;-49
2023/10/27 05:17:27;;;;;;;49.53;22.43;;;9.40;99.90;;;;;;5181498;28;20451;-50
2023/10/27 05:19:58;;;;;;;51.43;22.30;;;9.50;99.90;;;;;;5182985;28;20208;-50
2023/10/27 05:22:29;;;;;;;51.90;23.70;;;9.50;99.90;;;;;;5181589;28;20454;-49
2023/10/27 05:25:03;;;;;;;49.80;23.57;;;9.50;99.90;;;;;;5183572;28;20185;-49
2023/10/27 05:27:34;;;;;;;47.50;22.57;;;9.40;99.90;;;;;;5184447;28;20516;-49
2023/10/27 05:30:05;;;;;;;48.50;24.30;;;9.40;99.90;;;;;;5182167;28;20448;-49
2023/10/27 05:32:36;;;;;;;49.30;23.30;;;9.40;99.90;;;;;;5186075;28;20215;-49
2023/10/27 05:35:07;;;;;;;44.97;22.60;;;9.40;99.90;;;;;;5181006;28;20991;-50
2023/10/27 05:37:40;;;;;;;42.43;22.10;;;9.40;99.90;;;;;;5181867;28;20200;-49
2023/10/27 05:40:11;;;;;;;49.07;22.40;;;9.50;99.90;;;;;;5181901;28;20188;-52
2023/10/27 05:42:43;;;;;;;57.50;22.40;;;9.50;99.90;;;;;;5181689;28;21124;-51
2023/10/27 05:45:13;;;;;;;54.23;22.20;;;9.40;99.90;;;;;;5184283;28;20271;-49
2023/10/27 05:47:47;;;;;;;54.13;23.40;;;9.50;99.90;;;;;;5188912;28;20562;-50
2023/10/27 05:50:18;;;;;;;56.97;25.37;;;9.50;99.90;;;;;;5187111;28;20546;-52
2023/10/27 05:52:49;;;;;;;54.60;22.97;;;9.40;99.90;;;;;;5184336;28;20454;-49
2023/10/27 05:55:19;;;;;;;65.40;24.37;;;9.40;99.90;;;;;;5183271;28;20208;-52
2023/10/27 05:57:53;;;;;;;65.37;26.33;;;9.40;99.90;;;;;;5184684;28;20238;-50
2023/10/27 06:00:24;;;;;;;61.70;24.70;;;9.40;99.90;;;;;;5185274;28;20189;-50
2023/10/27 06:02:55;;;;;;;62.60;25.40;;;9.40;99.90;;;;;;5180202;28;20793;-53
2023/10/27 06:05:26;;;;;;;60.10;23.53;;;9.40;99.90;;;;;;5174705;28;20288;-49
2023/10/27 06:07:57;;;;;;;61.60;22.93;;;9.40;99.90;;;;;;5174814;28;20580;-53
2023/10/27 06:10:27;;;;;;;61.63;22.93;;;9.40;99.90;;;;;;5178550;28;20211;-54
2023/10/27 06:12:58;;;;;;;76.50;22.93;;;9.40;99.90;;;;;;5182188;28;20262;-51
2023/10/27 06:15:29;;;;;;;61.70;24.00;;;9.40;99.90;;;;;;5180145;28;20211;-51
2023/10/27 06:17:59;;;;;;;67.23;24.00;;;9.50;99.90;;;;;;5183756;28;20543;-53
2023/10/27 06:20:30;;;;;;;59.73;22.30;;;9.50;99.90;;;;;;5184286;28;20180;-51
2023/10/27 06:23:01;;;;;;;56.03;22.40;;;9.60;99.90;;;;;;5179770;28;20636;-50
2023/10/27 06:25:31;;;;;;;68.93;23.77;;;9.50;99.90;;;;;;5179936;28;20273;-53
2023/10/27 06:28:02;;;;;;;56.37;24.00;;;9.60;99.90;;;;;;5183113;28;20215;-54
2023/10/27 06:30:33;;;;;;;59.53;24.47;;;9.60;99.90;;;;;;5179801;28;20247;-51
2023/10/27 06:33:04;;;;;;;62.70;24.53;;;9.60;99.90;;;;;;5177404;28;20339;-52
2023/10/27 06:35:34;;;;;;;58.10;24.47;;;9.60;99.90;;;;;;5176115;28;20299;-53
2023/10/27 06:38:05;;;;;;;56.73;25.00;;;9.60;99.90;;;;;;5187825;28;20211;-50
2023/10/27 06:40:36;;;;;;;54.13;23.90;;;9.60;99.90;;;;;;5179452;28;20180;-49
2023/10/27 06:43:10;;;;;;;76.90;26.80;;;9.60;99.90;;;;;;5178107;28;20215;-51
2023/10/27 06:45:41;;;;;;;62.30;24.57;;;9.60;99.90;;;;;;5195048;28;20200;-49
2023/10/27 06:48:15;;;;;;;53.80;23.87;;;9.60;99.90;;;;;;5186113;28;20865;-53
2023/10/27 06:50:45;;;;;;;46.87;25.10;;;9.50;99.90;;;;;;5180381;28;20953;-49
2023/10/27 06:53:16;;;;;;;71.00;25.00;;;9.50;99.90;;;;;;5182629;28;20443;-50
2023/10/27 06:55:47;;;;;;;66.37;27.10;;;9.50;99.90;;;;;;5180973;28;20576;-50
2023/10/27 06:58:17;;;;;;;73.30;27.30;;;9.50;99.90;;;;;;5189574;28;20211;-50
2023/10/27 07:00:48;;;;;;;56.97;26.70;;;9.50;99.90;;;;;;5175176;28;20181;-50
2023/10/27 07:03:19;;;;;;;59.47;27.43;;;9.50;99.90;;;;;;5179218;28;20200;-49
2023/10/27 07:05:50;;;;;;;69.57;28.03;;;9.50;99.90;;;;;;5181972;28;20199;-50
2023/10/27 07:08:20;;;;;;;68.63;26.63;;;9.50;99.90;;;;;;5179041;28;20616;-49
2023/10/27 07:10:57;;;;;;;61.80;28.40;;;9.50;99.90;;;;;;5182767;28;20275;-51
2023/10/27 07:13:28;;;;;;;61.50;25.63;;;9.60;99.90;;;;;;5171014;28;20203;-50
2023/10/27 07:15:59;;;;;;;73.83;28.20;;;9.60;99.90;;;;;;5174912;28;20460;-50
2023/10/27 07:18:32;;;;;;;61.00;27.37;;;9.70;99.90;;;;;;5181042;28;20201;-50
2023/10/27 07:21:06;;;;;;;63.30;25.50;;;9.70;99.90;;;;;;5175789;28;20251;-49
2023/10/27 07:23:38;;;;;;;63.60;27.13;;;9.70;99.90;;;;;;5183305;28;20438;-48
2023/10/27 07:26:15;;;;;;;52.43;23.40;;;9.70;99.90;;;;;;5183212;28;20443;-53
2023/10/27 07:28:45;;;;;;;47.70;22.70;;;9.80;99.90;;;;;;5180107;28;20554;-54
2023/10/27 07:31:16;;;;;;;48.50;23.10;;;9.80;99.90;;;;;;5181034;28;20455;-49
2023/10/27 07:33:47;;;;;;;50.80;24.67;;;9.70;99.90;;;;;;5184901;28;20184;-51
2023/10/27 07:36:17;;;;;;;48.00;22.40;;;9.80;99.90;;;;;;5179936;28;20188;-49
2023/10/27 07:38:51;;;;;;;48.73;23.00;;;9.80;99.90;;;;;;5180151;28;20236;-50
2023/10/27 07:41:22;;;;;;;52.70;23.63;;;9.80;99.90;;;;;;5177193;28;20550;-51
2023/10/27 07:43:53;;;;;;;43.43;20.60;;;9.80;99.90;;;;;;5179688;28;20439;-48
2023/10/27 07:46:23;;;;;;;49.30;22.53;;;9.80;99.90;;;;;;5179620;28;20180;-48
2023/10/27 07:51:32;;;;;;;47.97;21.73;;;9.80;99.90;;;;;;5197572;28;20223;-52
2023/10/27 07:54:06;;;;;;;44.00;23.07;;;9.80;99.90;;;;;;5196848;28;20858;-50
2023/10/27 07:56:37;;;;;;;47.60;20.83;;;9.80;99.90;;;;;;5198523;28;20517;-50
2023/10/27 07:59:08;;;;;;;48.10;22.50;;;9.80;99.90;;;;;;5201091;28;20865;-58
2023/10/27 08:01:39;;;;;;;45.67;22.47;;;9.80;99.90;;;;;;5209802;28;20221;-50
2023/10/27 08:04:10;;;;;;;39.87;20.10;;;9.80;99.90;;;;;;5199274;28;20267;-49
2023/10/27 08:06:40;;;;;;;46.90;22.23;;;9.90;99.90;;;;;;5216246;28;20438;-50
2023/10/27 08:09:11;;;;;;;49.40;22.27;;;9.80;99.90;;;;;;5220824;28;20422;-49
2023/10/27 08:11:42;;;;;;;37.40;21.17;;;9.80;99.90;;;;;;5215386;28;20179;-50
2023/10/27 08:14:12;;;;;;;45.17;20.40;;;9.90;99.90;;;;;;5217732;28;20253;-51
2023/10/27 08:16:44;;;;;;;42.63;21.67;;;9.90;99.90;;;;;;5217619;28;20187;-50
2023/10/27 08:19:14;;;;;;;36.37;19.40;;;9.90;99.90;;;;;;5214073;28;20204;-53
2023/10/27 08:21:48;;;;;;;37.90;20.60;;;9.80;99.90;;;;;;5220171;28;20433;-51
2023/10/27 08:24:19;;;;;;;43.10;22.00;;;9.90;99.90;;;;;;5222681;28;20175;-50
2023/10/27 08:26:49;;;;;;;39.30;21.30;;;10.00;99.90;;;;;;5225275;28;20463;-50
2023/10/27 08:29:20;;;;;;;36.77;19.57;;;10.00;99.90;;;;;;5221541;28;20693;-49
2023/10/27 08:31:51;;;;;;;38.10;20.20;;;10.00;99.90;;;;;;5219925;28;20209;-49
2023/10/27 08:34:22;;;;;;;42.83;20.60;;;10.10;99.90;;;;;;5222669;28;20225;-50
2023/10/27 08:36:52;;;;;;;50.53;20.37;;;10.10;99.90;;;;;;5221846;28;20436;-50
2023/10/27 08:39:24;;;;;;;42.40;19.97;;;10.10;99.90;;;;;;5223456;28;20202;-49
2023/10/27 08:41:54;;;;;;;48.57;20.00;;;10.20;99.90;;;;;;5220284;28;20277;-48
2023/10/27 08:44:27;;;;;;;50.53;20.00;;;10.10;99.90;;;;;;5220628;28;20516;-51
2023/10/27 08:46:58;;;;;;;38.20;19.73;;;10.10;99.90;;;;;;5235543;28;20195;-50
2023/10/27 08:49:28;;;;;;;35.30;19.80;;;10.10;99.90;;;;;;5206999;28;20469;-49
2023/10/27 08:52:00;;;;;;;38.67;20.67;;;10.10;99.90;;;;;;5221413;28;20187;-50
2023/10/27 08:54:31;;;;;;;46.53;21.50;;;10.10;99.90;;;;;;5225983;28;20207;-51
2023/10/27 08:57:02;;;;;;;42.73;21.57;;;10.10;99.90;;;;;;5220666;28;20451;-50
2023/10/27 08:59:33;;;;;;;43.27;22.07;;;10.10;99.90;;;;;;5219667;28;20214;-50
2023/10/27 09:02:04;;;;;;;44.60;21.17;;;10.10;99.90;;;;;;5223634;28;20429;-50
2023/10/27 09:04:42;;;;;;;41.20;20.67;;;10.10;99.90;;;;;;5221618;28;20641;-50
2023/10/27 09:07:13;;;;;;;37.67;20.73;;;10.20;99.90;;;;;;5223029;28;20433;-49
2023/10/27 09:09:43;;;;;;;41.70;20.27;;;10.20;99.90;;;;;;5216960;28;20527;-49
2023/10/27 09:12:23;;;;;;;50.10;22.70;;;10.20;99.90;;;;;;5219057;28;20187;-49
2023/10/27 09:15:00;;;;;;;42.43;19.93;;;10.30;99.90;;;;;;5218046;28;20681;-51
2023/10/27 09:17:50;;;;;;;43.60;20.77;;;10.20;99.90;;;;;;5220524;28;20936;-49
2023/10/27 09:20:21;;;;;;;41.77;20.73;;;10.20;99.90;;;;;;5229302;28;20445;-50
2023/10/27 09:23:04;;;;;;;36.53;18.87;;;10.20;99.90;;;;;;5223975;28;20796;-49
2023/10/27 09:25:35;;;;;;;37.83;20.70;;;10.10;99.90;;;;;;5219043;28;20897;-50
2023/10/27 09:28:06;;;;;;;42.30;22.37;;;10.10;99.90;;;;;;5217606;28;20524;-49
2023/10/27 09:30:39;;;;;;;38.53;19.07;;;10.20;99.90;;;;;;5221709;28;20203;-51
2023/10/27 09:33:17;;;;;;;37.03;20.90;;;10.20;99.90;;;;;;5236664;28;20463;-50
2023/10/27 09:35:50;;;;;;;43.20;21.10;;;10.20;99.90;;;;;;5220764;28;20461;-52
2023/10/27 09:38:22;;;;;;;33.63;20.13;;;10.30;99.90;;;;;;5221576;28;20464;-51
2023/10/27 09:40:56;;;;;;;38.60;18.83;;;10.30;99.90;;;;;;5220330;28;20496;-50
2023/10/27 09:43:32;;;;;;;37.50;18.17;;;10.30;99.90;;;;;;5211686;28;20446;-50
2023/10/27 09:46:06;;;;;;;39.43;18.40;;;10.30;99.90;;;;;;5220080;28;20529;-49
2023/10/27 09:48:38;;;;;;;26.27;17.20;;;10.30;99.90;;;;;;5221502;28;20509;-50
2023/10/27 09:51:16;;;;;;;29.37;18.00;;;10.30;99.90;;;;;;5223352;28;20457;-49
2023/10/27 09:53:47;;;;;;;32.50;17.73;;;10.40;99.90;;;;;;5216970;28;20441;-49
2023/10/27 09:56:18;;;;;;;32.60;16.70;;;10.40;99.90;;;;;;5219441;28;20456;-50
2023/10/27 09:58:51;;;;;;;37.33;16.93;;;10.50;99.90;;;;;;5220140;28;20507;-50
2023/10/27 10:01:22;;;;;;;27.43;16.63;;;10.40;99.90;;;;;;5222526;28;20547;-50
2023/10/27 10:03:53;;;;;;;27.47;16.43;;;10.40;99.90;;;;;;5223999;28;20531;-50
2023/10/27 10:06:23;;;;;;;22.60;13.60;;;10.40;99.90;;;;;;5224723;28;20179;-49
2023/10/27 10:09:11;;;;;;;24.47;14.83;;;10.40;99.90;;;;;;5220520;28;20626;-50
2023/10/27 10:11:48;;;;;;;26.97;15.60;;;10.40;99.90;;;;;;5218450;28;20668;-50
2023/10/27 10:14:37;;;;;;;27.20;14.80;;;10.40;99.90;;;;;;5216640;28;20492;-48
2023/10/27 10:17:08;;;;;;;21.60;14.53;;;10.40;99.90;;;;;;5218031;28;20448;-50
2023/10/27 10:19:51;;;;;;;23.03;15.60;;;10.40;99.90;;;;;;5216234;28;20453;-50
2023/10/27 10:22:40;;;;;;;44.77;17.07;;;10.40;99.90;;;;;;5222924;28;20424;-50
2023/10/27 10:25:22;;;;;;;28.83;15.63;;;10.40;99.90;;;;;;5221239;28;20434;-50
2023/10/27 10:28:11;;;;;;;25.00;14.60;;;10.50;99.90;;;;;;5219274;28;20475;-50
2023/10/27 10:31:13;;;;;;;23.93;15.13;;;10.50;99.90;;;;;;5222213;28;20452;-50
2023/10/27 10:33:45;;;;;;;25.20;14.70;;;10.40;99.90;;;;;;5213609;28;20529;-49
2023/10/27 10:36:22;;;;;;;20.60;13.10;;;10.50;99.90;;;;;;5217770;28;20537;-50
2023/10/27 10:38:57;;;;;;;20.90;13.43;;;10.40;99.90;;;;;;5221330;28;20566;-51
2023/10/27 10:41:43;;;;;;;22.00;13.67;;;10.40;99.90;;;;;;5237807;28;20530;-50
2023/10/27 10:44:16;;;;;;;15.87;11.00;;;10.50;99.90;;;;;;5220769;28;20479;-49
2023/10/27 10:46:47;;;;;;;17.33;11.60;;;10.50;99.90;;;;;;5219764;28;20979;-50
2023/10/27 10:49:25;;;;;;;18.90;10.60;;;10.50;99.90;;;;;;5214751;28;20562;-50
2023/10/27 10:51:57;;;;;;;18.23;11.07;;;10.50;99.90;;;;;;5216352;28;20187;-51
2023/10/27 10:54:30;;;;;;;15.10;10.20;;;10.50;99.90;;;;;;5217464;28;20559;-50
2023/10/27 10:57:08;;;;;;;18.17;10.60;;;10.50;99.90;;;;;;5222565;28;21007;-51
2023/10/27 10:59:51;;;;;;;15.67;10.70;;;10.40;99.90;;;;;;5215802;28;20461;-50
2023/10/27 11:02:22;;;;;;;18.23;11.07;;;10.40;99.90;;;;;;5217271;28;20480;-50
2023/10/27 11:04:53;;;;;;;15.37;11.20;;;10.40;99.90;;;;;;5216981;28;20826;-51
2023/10/27 11:07:24;;;;;;;11.23;8.47;;;10.40;99.90;;;;;;5217266;28;20193;-49
2023/10/27 11:10:15;;;;;;;14.97;9.40;;;10.40;99.90;;;;;;5214590;28;20203;-50
2023/10/27 11:12:46;;;;;;;16.03;10.37;;;10.40;99.90;;;;;;5212966;28;20429;-49
2023/10/27 11:15:43;;;;;;;17.40;9.77;;;10.50;99.90;;;;;;5216991;28;20496;-50
2023/10/27 11:18:14;;;;;;;17.17;10.47;;;10.50;99.90;;;;;;5211500;28;20186;-50
2023/10/27 11:20:45;;;;;;;12.90;9.90;;;10.50;99.90;;;;;;5215324;28;21244;-49
2023/10/27 11:23:17;;;;;;;15.93;11.50;;;10.50;99.90;;;;;;5219696;28;21141;-51
2023/10/27 11:25:47;;;;;;;17.07;11.67;;;10.50;99.90;;;;;;5216732;28;20563;-50
2023/10/27 11:28:18;;;;;;;19.57;13.50;;;10.50;99.90;;;;;;5217456;28;20525;-49
2023/10/27 11:31:08;;;;;;;16.10;11.37;;;10.40;99.90;;;;;;5215107;28;20548;-49
2023/10/27 11:34:21;;;;;;;19.90;12.73;;;10.50;99.90;;;;;;5215909;28;20606;-49
2023/10/27 11:37:01;;;;;;;17.40;11.63;;;10.50;99.90;;;;;;5176994;28;20790;-49
2023/10/27 11:39:34;;;;;;;16.50;11.37;;;10.50;99.90;;;;;;5215398;28;20472;-49
2023/10/27 11:42:05;;;;;;;21.83;12.60;;;10.50;99.90;;;;;;5220638;28;20442;-49
2023/10/27 11:44:36;;;;;;;19.70;13.73;;;10.50;99.90;;;;;;5215393;28;20943;-49
2023/10/27 11:47:07;;;;;;;16.83;11.13;;;10.50;99.90;;;;;;5215258;28;20873;-49
2023/10/27 11:49:37;;;;;;;19.67;13.57;;;10.50;99.90;;;;;;5217036;28;20819;-50
2023/10/27 11:52:09;;;;;;;19.77;13.90;;;10.40;99.90;;;;;;5217474;28;20646;-48
2023/10/27 11:54:40;;;;;;;21.10;13.40;;;10.40;99.90;;;;;;5221267;28;20580;-49
2023/10/27 11:57:11;;;;;;;21.43;14.73;;;10.50;99.90;;;;;;5218009;28;20524;-50
2023/10/27 11:59:42;;;;;;;19.30;12.40;;;10.50;99.90;;;;;;5222118;28;20276;-50
2023/10/27 12:02:13;;;;;;;25.43;14.50;;;10.50;99.90;;;;;;5220487;28;20461;-49
2023/10/27 12:04:44;;;;;;;23.47;13.10;;;10.50;99.90;;;;;;5220216;28;20186;-51
2023/10/27 12:07:17;;;;;;;19.87;12.00;;;10.50;99.90;;;;;;5219779;28;21933;-51
2023/10/27 12:09:47;;;;;;;21.90;13.13;;;10.50;99.90;;;;;;5217369;28;20249;-51
2023/10/27 12:12:18;;;;;;;20.33;14.27;;;10.50;99.90;;;;;;5219545;28;20474;-52
2023/10/27 12:14:49;;;;;;;17.23;12.30;;;10.60;99.90;;;;;;5226959;28;20217;-50
2023/10/27 12:17:20;;;;;;;21.53;13.10;;;10.60;99.90;;;;;;5223162;28;20187;-51
2023/10/27 12:19:50;;;;;;;20.70;14.23;;;10.60;99.90;;;;;;5220760;28;20206;-49
2023/10/27 12:22:21;;;;;;;23.30;13.00;;;10.60;99.90;;;;;;5238615;28;20187;-51
2023/10/27 12:24:53;;;;;;;16.70;12.23;;;10.60;99.90;;;;;;5226998;28;20178;-52
2023/10/27 12:27:24;;;;;;;16.80;11.80;;;10.60;99.90;;;;;;5224055;28;20515;-49
2023/10/27 12:29:55;;;;;;;20.20;13.60;;;10.50;99.90;;;;;;5219899;28;20964;-48
2023/10/27 12:32:32;;;;;;;21.23;13.33;;;10.50;99.90;;;;;;5222065;28;20445;-52
2023/10/27 12:35:06;;;;;;;26.53;14.00;;;10.50;99.90;;;;;;5224544;28;20206;-51
2023/10/27 12:37:37;;;;;;;21.90;12.80;;;10.50;99.90;;;;;;5222677;28;20535;-52
2023/10/27 12:40:09;;;;;;;30.57;13.47;;;10.40;99.90;;;;;;5224490;28;20896;-51
2023/10/27 12:42:39;;;;;;;23.43;13.87;;;10.40;99.90;;;;;;5217524;28;20210;-51
2023/10/27 12:45:13;;;;;;;16.80;12.47;;;10.40;99.90;;;;;;5219324;28;20489;-49
2023/10/27 12:47:47;;;;;;;18.97;12.57;;;10.40;99.90;;;;;;5223121;28;20277;-48
2023/10/27 12:50:18;;;;;;;20.83;14.13;;;10.40;99.90;;;;;;5221382;28;20471;-48
2023/10/27 12:52:49;;;;;;;22.43;13.43;;;10.40;99.90;;;;;;5224862;28;20437;-50
2023/10/27 12:55:20;;;;;;;19.03;11.70;;;10.40;99.90;;;;;;5228648;28;20195;-47
2023/10/27 12:57:50;;;;;;;20.30;13.03;;;10.40;99.90;;;;;;5225005;28;20179;-48
2023/10/27 13:00:22;;;;;;;25.07;12.83;;;10.30;99.90;;;;;;5214798;28;20251;-51
2023/10/27 13:02:53;;;;;;;19.63;13.20;;;10.30;99.90;;;;;;5223232;28;21576;-46